sensor_id;sensor_type;location;lat;lon;timestamp;pressure;altitude;pressure_sealevel;temperature;humidity
4570;BME280;2297;51.442;6.996;2022-09-30T00:01:16;99486.78;;;10.68;49.93
4570;BME280;2297;51.442;6.996;2022-09-30T00:03:43;99496.25;;;10.75;50.04
4570;BME280;2297;51.442;6.996;2022-09-30T00:06:11;99491.22;;;10.68;50.29
4570;BME280;2297;51.442;6.996;2022-09-30T00:08:38;99487.56;;;10.72;50.31
4570;BME280;2297;51.442;6.996;2022-09-30T00:11:06;99494.50;;;10.74;50.26
4570;BME280;2297;51.442;6.996;2022-09-30T00:13:35;99499.69;;;10.77;49.87
4570;BME280;2297;51.442;6.996;2022-09-30T00:16:03;99499.03;;;10.71;49.60
4570;BME280;2297;51.442;6.996;2022-09-30T00:18:30;99508.75;;;10.70;49.36
4570;BME280;2297;51.442;6.996;2022-09-30T00:20:57;99509.50;;;10.74;49.38
4570;BME280;2297;51.442;6.996;2022-09-30T00:23:26;99508.63;;;10.73;49.23
4570;BME280;2297;51.442;6.996;2022-09-30T00:25:56;99510.56;;;10.68;49.11
4570;BME280;2297;51.442;6.996;2022-09-30T00:28:24;99509.53;;;10.72;49.36
4570;BME280;2297;51.442;6.996;2022-09-30T00:30:50;99512.88;;;10.77;49.32
4570;BME280;2297;51.442;6.996;2022-09-30T00:33:17;99501.34;;;10.80;49.36
4570;BME280;2297;51.442;6.996;2022-09-30T00:35:43;99508.41;;;10.79;48.96
4570;BME280;2297;51.442;6.996;2022-09-30T00:38:10;99505.91;;;10.75;49.32
4570;BME280;2297;51.442;6.996;2022-09-30T00:40:38;99503.91;;;10.83;49.36
4570;BME280;2297;51.442;6.996;2022-09-30T00:43:11;99506.63;;;10.80;49.37
4570;BME280;2297;51.442;6.996;2022-09-30T00:45:42;99512.09;;;10.75;49.45
4570;BME280;2297;51.442;6.996;2022-09-30T00:48:14;99513.69;;;10.79;49.85
4570;BME280;2297;51.442;6.996;2022-09-30T00:50:43;99509.22;;;10.81;50.63
4570;BME280;2297;51.442;6.996;2022-09-30T00:53:13;99512.78;;;10.80;50.17
4570;BME280;2297;51.442;6.996;2022-09-30T00:55:48;99512.81;;;10.79;50.01
4570;BME280;2297;51.442;6.996;2022-09-30T00:58:20;99513.00;;;10.74;49.39
4570;BME280;2297;51.442;6.996;2022-09-30T01:00:48;99515.63;;;10.74;49.86
4570;BME280;2297;51.442;6.996;2022-09-30T01:03:16;99513.91;;;10.73;49.61
4570;BME280;2297;51.442;6.996;2022-09-30T01:05:43;99512.41;;;10.66;49.96
4570;BME280;2297;51.442;6.996;2022-09-30T01:08:10;99514.94;;;10.69;49.97
4570;BME280;2297;51.442;6.996;2022-09-30T01:10:36;99519.50;;;10.64;50.11
4570;BME280;2297;51.442;6.996;2022-09-30T01:13:05;99524.88;;;10.61;50.39
4570;BME280;2297;51.442;6.996;2022-09-30T01:15:46;99522.50;;;10.53;50.17
4570;BME280;2297;51.442;6.996;2022-09-30T01:18:26;99520.34;;;10.39;50.64
4570;BME280;2297;51.442;6.996;2022-09-30T01:21:15;99518.59;;;10.38;50.67
4570;BME280;2297;51.442;6.996;2022-09-30T01:24:07;99518.47;;;10.41;50.56
4570;BME280;2297;51.442;6.996;2022-09-30T01:29:49;99528.38;;;10.35;51.23
4570;BME280;2297;51.442;6.996;2022-09-30T01:32:32;99531.38;;;10.24;51.77
4570;BME280;2297;51.442;6.996;2022-09-30T01:35:15;99523.63;;;10.18;51.97
4570;BME280;2297;51.442;6.996;2022-09-30T01:37:57;99523.47;;;10.24;52.15
4570;BME280;2297;51.442;6.996;2022-09-30T01:40:31;99527.06;;;10.21;52.17
4570;BME280;2297;51.442;6.996;2022-09-30T01:43:06;99522.44;;;10.28;52.30
4570;BME280;2297;51.442;6.996;2022-09-30T01:45:38;99522.72;;;10.19;52.83
4570;BME280;2297;51.442;6.996;2022-09-30T01:48:15;99531.03;;;10.06;53.30
4570;BME280;2297;51.442;6.996;2022-09-30T01:50:47;99522.31;;;9.74;53.90
4570;BME280;2297;51.442;6.996;2022-09-30T01:53:22;99523.00;;;9.79;54.27
4570;BME280;2297;51.442;6.996;2022-09-30T01:56:28;99528.38;;;9.76;54.71
4570;BME280;2297;51.442;6.996;2022-09-30T01:59:01;99532.75;;;9.77;54.57
4570;BME280;2297;51.442;6.996;2022-09-30T02:01:37;99535.97;;;9.87;54.79
4570;BME280;2297;51.442;6.996;2022-09-30T02:04:09;99539.31;;;9.94;54.63
4570;BME280;2297;51.442;6.996;2022-09-30T02:06:41;99537.59;;;9.91;54.80
4570;BME280;2297;51.442;6.996;2022-09-30T02:09:12;99539.56;;;9.85;55.09
4570;BME280;2297;51.442;6.996;2022-09-30T02:11:40;99536.13;;;9.82;55.12
4570;BME280;2297;51.442;6.996;2022-09-30T02:14:11;99536.13;;;9.82;55.21
4570;BME280;2297;51.442;6.996;2022-09-30T02:16:42;99526.41;;;9.55;55.93
4570;BME280;2297;51.442;6.996;2022-09-30T02:19:17;99521.63;;;9.68;55.82
4570;BME280;2297;51.442;6.996;2022-09-30T02:21:49;99525.56;;;9.53;56.03
4570;BME280;2297;51.442;6.996;2022-09-30T02:24:18;99519.38;;;9.54;56.33
4570;BME280;2297;51.442;6.996;2022-09-30T02:26:52;99525.03;;;9.71;55.92
4570;BME280;2297;51.442;6.996;2022-09-30T02:29:24;99523.56;;;9.61;56.25
4570;BME280;2297;51.442;6.996;2022-09-30T02:31:55;99527.25;;;9.55;56.40
4570;BME280;2297;51.442;6.996;2022-09-30T02:34:29;99530.28;;;9.71;55.73
4570;BME280;2297;51.442;6.996;2022-09-30T02:37:01;99535.78;;;9.65;56.12
4570;BME280;2297;51.442;6.996;2022-09-30T02:39:35;99537.66;;;9.60;56.34
4570;BME280;2297;51.442;6.996;2022-09-30T02:42:06;99534.19;;;9.58;56.59
4570;BME280;2297;51.442;6.996;2022-09-30T02:44:35;99536.84;;;9.58;56.37
4570;BME280;2297;51.442;6.996;2022-09-30T02:47:10;99536.09;;;9.53;56.85
4570;BME280;2297;51.442;6.996;2022-09-30T02:50:15;99538.94;;;9.46;56.89
4570;BME280;2297;51.442;6.996;2022-09-30T02:52:52;99541.59;;;9.45;57.14
4570;BME280;2297;51.442;6.996;2022-09-30T02:55:26;99550.84;;;9.60;56.62
4570;BME280;2297;51.442;6.996;2022-09-30T02:57:59;99544.53;;;9.34;57.41
4570;BME280;2297;51.442;6.996;2022-09-30T03:00:31;99549.06;;;9.30;57.76
4570;BME280;2297;51.442;6.996;2022-09-30T03:03:03;99547.34;;;9.28;57.84
4570;BME280;2297;51.442;6.996;2022-09-30T03:05:33;99548.81;;;9.38;57.82
4570;BME280;2297;51.442;6.996;2022-09-30T03:08:01;99553.53;;;9.27;58.03
4570;BME280;2297;51.442;6.996;2022-09-30T03:10:28;99548.81;;;9.07;58.74
4570;BME280;2297;51.442;6.996;2022-09-30T03:13:07;99551.31;;;9.11;58.83
4570;BME280;2297;51.442;6.996;2022-09-30T03:15:49;99557.22;;;9.21;58.62
4570;BME280;2297;51.442;6.996;2022-09-30T03:18:33;99547.44;;;9.25;58.64
4570;BME280;2297;51.442;6.996;2022-09-30T03:21:08;99548.00;;;9.36;58.26
4570;BME280;2297;51.442;6.996;2022-09-30T03:23:53;99548.31;;;9.24;58.58
4570;BME280;2297;51.442;6.996;2022-09-30T03:26:32;99561.53;;;9.22;58.69
4570;BME280;2297;51.442;6.996;2022-09-30T03:29:08;99562.50;;;9.20;58.98
4570;BME280;2297;51.442;6.996;2022-09-30T03:31:41;99561.09;;;9.06;59.36
4570;BME280;2297;51.442;6.996;2022-09-30T03:34:19;99558.31;;;9.12;59.20
4570;BME280;2297;51.442;6.996;2022-09-30T03:36:55;99567.59;;;9.26;58.82
4570;BME280;2297;51.442;6.996;2022-09-30T03:39:32;99560.78;;;9.19;59.11
4570;BME280;2297;51.442;6.996;2022-09-30T03:42:08;99564.13;;;9.24;58.86
4570;BME280;2297;51.442;6.996;2022-09-30T03:44:40;99567.75;;;9.20;58.92
4570;BME280;2297;51.442;6.996;2022-09-30T03:47:12;99572.22;;;9.18;59.20
4570;BME280;2297;51.442;6.996;2022-09-30T03:49:44;99568.34;;;8.98;59.59
4570;BME280;2297;51.442;6.996;2022-09-30T03:52:14;99569.78;;;9.10;59.37
4570;BME280;2297;51.442;6.996;2022-09-30T03:54:49;99586.88;;;9.28;58.55
4570;BME280;2297;51.442;6.996;2022-09-30T03:57:17;99579.78;;;9.30;58.50
4570;BME280;2297;51.442;6.996;2022-09-30T03:59:43;99579.09;;;9.23;58.90
4570;BME280;2297;51.442;6.996;2022-09-30T04:02:10;99582.38;;;9.31;58.41
4570;BME280;2297;51.442;6.996;2022-09-30T04:04:38;99582.72;;;9.19;58.95
4570;BME280;2297;51.442;6.996;2022-09-30T04:07:06;99584.41;;;9.22;58.84
4570;BME280;2297;51.442;6.996;2022-09-30T04:09:34;99581.91;;;9.15;59.29
4570;BME280;2297;51.442;6.996;2022-09-30T04:12:01;99588.78;;;9.23;58.87
4570;BME280;2297;51.442;6.996;2022-09-30T04:14:27;99590.63;;;9.19;59.12
4570;BME280;2297;51.442;6.996;2022-09-30T04:16:54;99598.22;;;9.30;58.78
4570;BME280;2297;51.442;6.996;2022-09-30T04:19:20;99601.66;;;9.34;58.87
4570;BME280;2297;51.442;6.996;2022-09-30T04:21:49;99606.97;;;9.32;58.61
4570;BME280;2297;51.442;6.996;2022-09-30T04:24:16;99606.84;;;9.37;58.72
4570;BME280;2297;51.442;6.996;2022-09-30T04:26:44;99615.53;;;9.40;58.51
4570;BME280;2297;51.442;6.996;2022-09-30T04:29:11;99613.22;;;9.28;58.99
4570;BME280;2297;51.442;6.996;2022-09-30T04:31:37;99620.22;;;9.29;58.77
4570;BME280;2297;51.442;6.996;2022-09-30T04:34:04;99615.19;;;9.20;59.04
4570;BME280;2297;51.442;6.996;2022-09-30T04:36:31;99614.19;;;9.24;59.07
4570;BME280;2297;51.442;6.996;2022-09-30T04:38:57;99615.13;;;9.23;59.20
4570;BME280;2297;51.442;6.996;2022-09-30T04:41:24;99609.75;;;9.26;58.84
4570;BME280;2297;51.442;6.996;2022-09-30T04:43:52;99613.06;;;9.34;58.45
4570;BME280;2297;51.442;6.996;2022-09-30T04:46:20;99618.25;;;9.37;58.78
4570;BME280;2297;51.442;6.996;2022-09-30T04:48:48;99617.75;;;9.23;58.81
4570;BME280;2297;51.442;6.996;2022-09-30T04:51:17;99614.88;;;9.32;58.74
4570;BME280;2297;51.442;6.996;2022-09-30T04:53:44;99620.53;;;9.17;59.23
4570;BME280;2297;51.442;6.996;2022-09-30T04:56:11;99623.84;;;9.25;58.98
4570;BME280;2297;51.442;6.996;2022-09-30T04:58:38;99622.97;;;9.24;58.93
4570;BME280;2297;51.442;6.996;2022-09-30T05:01:08;99623.50;;;9.04;59.63
4570;BME280;2297;51.442;6.996;2022-09-30T05:03:35;99632.63;;;9.25;59.31
4570;BME280;2297;51.442;6.996;2022-09-30T05:06:02;99628.94;;;9.31;58.98
4570;BME280;2297;51.442;6.996;2022-09-30T05:08:30;99633.19;;;9.37;59.01
4570;BME280;2297;51.442;6.996;2022-09-30T05:11:00;99632.41;;;9.33;58.92
4570;BME280;2297;51.442;6.996;2022-09-30T05:13:30;99634.31;;;9.28;59.02
4570;BME280;2297;51.442;6.996;2022-09-30T05:15:57;99642.28;;;9.25;59.12
4570;BME280;2297;51.442;6.996;2022-09-30T05:18:25;99634.31;;;9.28;59.02
4570;BME280;2297;51.442;6.996;2022-09-30T05:20:53;99630.56;;;9.37;58.84
4570;BME280;2297;51.442;6.996;2022-09-30T05:23:21;99623.53;;;9.37;58.89
4570;BME280;2297;51.442;6.996;2022-09-30T05:25:49;99631.59;;;9.31;59.10
4570;BME280;2297;51.442;6.996;2022-09-30T05:28:16;99639.06;;;9.13;59.28
4570;BME280;2297;51.442;6.996;2022-09-30T05:30:44;99638.78;;;9.24;59.05
4570;BME280;2297;51.442;6.996;2022-09-30T05:33:11;99645.09;;;9.19;59.24
4570;BME280;2297;51.442;6.996;2022-09-30T05:35:40;99658.94;;;9.27;59.11
4570;BME280;2297;51.442;6.996;2022-09-30T05:38:08;99662.38;;;9.29;59.04
4570;BME280;2297;51.442;6.996;2022-09-30T05:40:36;99665.84;;;9.31;58.74
4570;BME280;2297;51.442;6.996;2022-09-30T05:43:04;99661.28;;;9.03;59.35
4570;BME280;2297;51.442;6.996;2022-09-30T05:45:31;99675.25;;;9.05;59.23
4570;BME280;2297;51.442;6.996;2022-09-30T05:47:58;99682.03;;;9.15;59.04
4570;BME280;2297;51.442;6.996;2022-09-30T05:50:25;99680.16;;;9.21;58.99
4570;BME280;2297;51.442;6.996;2022-09-30T05:52:53;99683.44;;;9.29;59.31
4570;BME280;2297;51.442;6.996;2022-09-30T05:55:20;99686.78;;;9.37;59.05
4570;BME280;2297;51.442;6.996;2022-09-30T05:57:48;99683.06;;;9.44;58.91
4570;BME280;2297;51.442;6.996;2022-09-30T06:00:15;99685.03;;;9.36;58.94
4570;BME280;2297;51.442;6.996;2022-09-30T06:02:42;99689.28;;;9.42;58.81
4570;BME280;2297;51.442;6.996;2022-09-30T06:05:10;99688.47;;;9.38;58.83
4570;BME280;2297;51.442;6.996;2022-09-30T06:07:37;99694.69;;;9.37;58.88
4570;BME280;2297;51.442;6.996;2022-09-30T06:10:07;99703.44;;;9.38;59.00
4570;BME280;2297;51.442;6.996;2022-09-30T06:12:36;99695.34;;;9.11;59.58
4570;BME280;2297;51.442;6.996;2022-09-30T06:15:04;99703.19;;;9.12;59.99
4570;BME280;2297;51.442;6.996;2022-09-30T06:17:31;99706.19;;;8.97;61.11
4570;BME280;2297;51.442;6.996;2022-09-30T06:19:57;99697.34;;;9.00;60.86
4570;BME280;2297;51.442;6.996;2022-09-30T06:22:43;99702.53;;;9.04;60.84
4570;BME280;2297;51.442;6.996;2022-09-30T06:25:11;99709.03;;;9.24;60.19
4570;BME280;2297;51.442;6.996;2022-09-30T06:27:38;99710.28;;;9.09;60.60
4570;BME280;2297;51.442;6.996;2022-09-30T06:30:06;99711.13;;;9.11;60.71
4570;BME280;2297;51.442;6.996;2022-09-30T06:32:33;99719.53;;;8.89;61.43
4570;BME280;2297;51.442;6.996;2022-09-30T06:34:59;99728.38;;;8.87;61.45
4570;BME280;2297;51.442;6.996;2022-09-30T06:37:28;99727.78;;;9.11;60.86
4570;BME280;2297;51.442;6.996;2022-09-30T06:39:55;99732.69;;;9.27;60.26
4570;BME280;2297;51.442;6.996;2022-09-30T06:42:23;99735.38;;;9.24;60.17
4570;BME280;2297;51.442;6.996;2022-09-30T06:44:49;99742.19;;;9.34;59.81
4570;BME280;2297;51.442;6.996;2022-09-30T06:47:16;99740.66;;;9.24;60.13
4570;BME280;2297;51.442;6.996;2022-09-30T06:49:43;99746.88;;;9.23;60.27
4570;BME280;2297;51.442;6.996;2022-09-30T06:52:09;99743.25;;;9.27;60.22
4570;BME280;2297;51.442;6.996;2022-09-30T06:54:37;99747.75;;;9.22;60.32
4570;BME280;2297;51.442;6.996;2022-09-30T06:57:04;99750.91;;;9.36;59.71
4570;BME280;2297;51.442;6.996;2022-09-30T06:59:32;99766.50;;;9.09;60.44
4570;BME280;2297;51.442;6.996;2022-09-30T07:01:58;99759.31;;;9.14;60.18
4570;BME280;2297;51.442;6.996;2022-09-30T07:04:25;99764.53;;;9.18;60.31
4570;BME280;2297;51.442;6.996;2022-09-30T07:06:52;99770.72;;;9.17;60.07
4570;BME280;2297;51.442;6.996;2022-09-30T07:09:19;99767.63;;;9.35;59.98
4570;BME280;2297;51.442;6.996;2022-09-30T07:11:45;99770.28;;;8.97;60.58
4570;BME280;2297;51.442;6.996;2022-09-30T07:14:13;99776.59;;;9.28;59.55
4570;BME280;2297;51.442;6.996;2022-09-30T07:16:41;99782.22;;;9.12;59.84
4570;BME280;2297;51.442;6.996;2022-09-30T07:19:10;99774.06;;;9.23;59.68
4570;BME280;2297;51.442;6.996;2022-09-30T07:21:36;99771.47;;;9.22;59.44
4570;BME280;2297;51.442;6.996;2022-09-30T07:24:03;99778.41;;;9.26;59.22
4570;BME280;2297;51.442;6.996;2022-09-30T07:26:30;99774.69;;;9.33;59.14
4570;BME280;2297;51.442;6.996;2022-09-30T07:28:57;99767.94;;;9.23;59.37
4570;BME280;2297;51.442;6.996;2022-09-30T07:31:24;99771.47;;;9.22;59.99
4570;BME280;2297;51.442;6.996;2022-09-30T07:33:53;99765.84;;;9.36;59.19
4570;BME280;2297;51.442;6.996;2022-09-30T07:36:23;99772.53;;;9.51;59.38
4570;BME280;2297;51.442;6.996;2022-09-30T07:38:52;99774.31;;;9.48;59.34
4570;BME280;2297;51.442;6.996;2022-09-30T07:41:23;99777.63;;;9.57;59.08
4570;BME280;2297;51.442;6.996;2022-09-30T07:43:52;99782.66;;;9.66;58.95
4570;BME280;2297;51.442;6.996;2022-09-30T07:46:23;99786.16;;;9.68;58.82
4570;BME280;2297;51.442;6.996;2022-09-30T07:48:51;99781.91;;;9.62;59.01
4570;BME280;2297;51.442;6.996;2022-09-30T07:51:24;99788.00;;;9.64;59.27
4570;BME280;2297;51.442;6.996;2022-09-30T07:53:53;99787.25;;;9.94;58.51
4570;BME280;2297;51.442;6.996;2022-09-30T07:56:21;99784.63;;;9.94;58.62
4570;BME280;2297;51.442;6.996;2022-09-30T07:58:53;99781.50;;;10.12;58.25
4570;BME280;2297;51.442;6.996;2022-09-30T08:01:20;99785.53;;;9.91;58.87
4570;BME280;2297;51.442;6.996;2022-09-30T08:03:47;99788.22;;;9.90;58.91
4570;BME280;2297;51.442;6.996;2022-09-30T08:06:18;99792.28;;;10.03;58.74
4570;BME280;2297;51.442;6.996;2022-09-30T08:08:46;99788.09;;;9.96;59.14
4570;BME280;2297;51.442;6.996;2022-09-30T08:11:13;99781.34;;;10.19;58.56
4570;BME280;2297;51.442;6.996;2022-09-30T08:13:40;99775.44;;;10.09;59.10
4570;BME280;2297;51.442;6.996;2022-09-30T08:16:07;99784.31;;;10.38;58.41
4570;BME280;2297;51.442;6.996;2022-09-30T08:18:34;99787.63;;;10.44;58.33
4570;BME280;2297;51.442;6.996;2022-09-30T08:21:02;99783.75;;;10.58;57.94
4570;BME280;2297;51.442;6.996;2022-09-30T08:23:29;99790.16;;;10.49;58.54
4570;BME280;2297;51.442;6.996;2022-09-30T08:26:01;99788.53;;;10.45;58.31
4570;BME280;2297;51.442;6.996;2022-09-30T08:28:28;99785.25;;;10.35;59.01
4570;BME280;2297;51.442;6.996;2022-09-30T08:31:02;99794.06;;;10.67;58.29
4570;BME280;2297;51.442;6.996;2022-09-30T08:33:29;99793.13;;;10.68;58.45
4570;BME280;2297;51.442;6.996;2022-09-30T08:35:55;99782.22;;;10.80;58.32
4570;BME280;2297;51.442;6.996;2022-09-30T08:38:22;99790.13;;;10.80;58.10
4570;BME280;2297;51.442;6.996;2022-09-30T08:40:53;99786.28;;;10.91;58.18
4570;BME280;2297;51.442;6.996;2022-09-30T08:43:29;99782.88;;;10.87;58.26
4570;BME280;2297;51.442;6.996;2022-09-30T08:46:04;99788.25;;;11.14;57.55
4570;BME280;2297;51.442;6.996;2022-09-30T08:48:43;99794.50;;;11.11;57.58
4570;BME280;2297;51.442;6.996;2022-09-30T08:51:25;99786.16;;;11.24;57.14
4570;BME280;2297;51.442;6.996;2022-09-30T08:53:56;99790.50;;;11.26;57.16
4570;BME280;2297;51.442;6.996;2022-09-30T08:56:26;99790.66;;;11.22;57.13
4570;BME280;2297;51.442;6.996;2022-09-30T08:59:00;99799.63;;;11.16;57.67
4570;BME280;2297;51.442;6.996;2022-09-30T09:01:32;99797.50;;;11.27;57.48
4570;BME280;2297;51.442;6.996;2022-09-30T09:04:01;99798.84;;;11.41;56.98
4570;BME280;2297;51.442;6.996;2022-09-30T09:06:34;99798.50;;;11.52;56.55
4570;BME280;2297;51.442;6.996;2022-09-30T09:12:13;99807.41;;;11.76;55.79
4570;BME280;2297;51.442;6.996;2022-09-30T09:14:57;99796.06;;;11.45;56.38
4570;BME280;2297;51.442;6.996;2022-09-30T09:17:38;99796.88;;;11.47;56.78
4570;BME280;2297;51.442;6.996;2022-09-30T09:20:13;99800.22;;;11.79;55.84
4570;BME280;2297;51.442;6.996;2022-09-30T09:22:40;99799.91;;;11.62;56.70
4570;BME280;2297;51.442;6.996;2022-09-30T09:25:12;99801.56;;;11.91;55.70
4570;BME280;2297;51.442;6.996;2022-09-30T09:27:45;99801.22;;;11.75;56.10
4570;BME280;2297;51.442;6.996;2022-09-30T09:30:19;99802.53;;;11.89;55.78
4570;BME280;2297;51.442;6.996;2022-09-30T09:32:50;99794.00;;;11.80;56.10
4570;BME280;2297;51.442;6.996;2022-09-30T09:35:35;99801.38;;;11.97;55.21
4570;BME280;2297;51.442;6.996;2022-09-30T09:38:12;99803.09;;;11.98;55.23
4570;BME280;2297;51.442;6.996;2022-09-30T09:41:11;99785.41;;;12.26;54.68
4570;BME280;2297;51.442;6.996;2022-09-30T09:43:50;99799.00;;;12.40;53.90
4570;BME280;2297;51.442;6.996;2022-09-30T09:46:24;99801.69;;;12.13;54.15
4570;BME280;2297;51.442;6.996;2022-09-30T09:55:08;99794.50;;;12.90;52.65
4570;BME280;2297;51.442;6.996;2022-09-30T09:57:35;99789.53;;;13.04;52.34
4570;BME280;2297;51.442;6.996;2022-09-30T10:00:06;99798.16;;;13.09;51.69
4570;BME280;2297;51.442;6.996;2022-09-30T10:03:02;99798.66;;;12.97;51.98
4570;BME280;2297;51.442;6.996;2022-09-30T10:05:31;99799.06;;;13.08;51.69
4570;BME280;2297;51.442;6.996;2022-09-30T10:08:14;99809.03;;;13.25;51.20
4570;BME280;2297;51.442;6.996;2022-09-30T10:10:44;99801.50;;;13.14;51.49
4570;BME280;2297;51.442;6.996;2022-09-30T10:13:15;99799.06;;;13.32;51.08
4570;BME280;2297;51.442;6.996;2022-09-30T10:15:42;99790.03;;;13.36;50.78
4570;BME280;2297;51.442;6.996;2022-09-30T10:18:17;99786.84;;;13.50;50.39
4570;BME280;2297;51.442;6.996;2022-09-30T10:20:50;99787.59;;;13.54;49.80
4570;BME280;2297;51.442;6.996;2022-09-30T10:23:20;99792.75;;;13.57;50.12
4570;BME280;2297;51.442;6.996;2022-09-30T10:25:58;99793.75;;;13.32;50.70
4570;BME280;2297;51.442;6.996;2022-09-30T10:28:27;99786.84;;;13.50;49.77
4570;BME280;2297;51.442;6.996;2022-09-30T10:30:57;99778.06;;;13.48;50.17
4570;BME280;2297;51.442;6.996;2022-09-30T10:33:29;99782.59;;;13.67;49.04
4570;BME280;2297;51.442;6.996;2022-09-30T10:36:06;99793.97;;;13.70;48.69
4570;BME280;2297;51.442;6.996;2022-09-30T10:38:34;99785.72;;;13.56;49.29
4570;BME280;2297;51.442;6.996;2022-09-30T10:41:03;99792.63;;;13.60;49.12
4570;BME280;2297;51.442;6.996;2022-09-30T10:43:35;99786.66;;;13.75;49.05
4570;BME280;2297;51.442;6.996;2022-09-30T10:46:03;99788.22;;;14.02;48.11
4570;BME280;2297;51.442;6.996;2022-09-30T10:48:35;99780.78;;;14.10;47.75
4570;BME280;2297;51.442;6.996;2022-09-30T10:51:03;99785.63;;;14.00;47.66
4570;BME280;2297;51.442;6.996;2022-09-30T10:53:32;99777.09;;;14.33;47.31
4570;BME280;2297;51.442;6.996;2022-09-30T10:56:00;99781.47;;;14.55;47.00
4570;BME280;2297;51.442;6.996;2022-09-30T10:58:39;99786.19;;;14.67;46.54
4570;BME280;2297;51.442;6.996;2022-09-30T11:01:15;99789.94;;;14.82;46.12
4570;BME280;2297;51.442;6.996;2022-09-30T11:03:52;99789.56;;;14.52;45.65
4570;BME280;2297;51.442;6.996;2022-09-30T11:06:22;99800.72;;;14.60;45.39
4570;BME280;2297;51.442;6.996;2022-09-30T11:08:54;99803.72;;;14.71;45.49
4570;BME280;2297;51.442;6.996;2022-09-30T11:11:26;99790.03;;;14.41;45.26
4570;BME280;2297;51.442;6.996;2022-09-30T11:13:55;99794.78;;;14.34;45.33
4570;BME280;2297;51.442;6.996;2022-09-30T11:16:29;99810.19;;;14.26;45.53
4570;BME280;2297;51.442;6.996;2022-09-30T11:19:02;99808.06;;;14.34;44.98
4570;BME280;2297;51.442;6.996;2022-09-30T11:21:38;99813.94;;;14.61;44.86
4570;BME280;2297;51.442;6.996;2022-09-30T11:24:19;99817.59;;;14.38;43.76
4570;BME280;2297;51.442;6.996;2022-09-30T11:26:52;99812.19;;;14.41;43.71
4570;BME280;2297;51.442;6.996;2022-09-30T11:29:35;99812.09;;;14.43;44.57
4570;BME280;2297;51.442;6.996;2022-09-30T11:32:10;99812.69;;;14.08;44.33
4570;BME280;2297;51.442;6.996;2022-09-30T11:34:48;99806.09;;;14.19;44.40
4570;BME280;2297;51.442;6.996;2022-09-30T11:37:29;99804.56;;;14.53;43.44
4570;BME280;2297;51.442;6.996;2022-09-30T11:40:28;99813.03;;;14.61;43.63
4570;BME280;2297;51.442;6.996;2022-09-30T11:43:02;99802.88;;;14.71;43.29
4570;BME280;2297;51.442;6.996;2022-09-30T11:45:40;99807.13;;;14.75;43.16
4570;BME280;2297;51.442;6.996;2022-09-30T11:48:26;99806.88;;;14.60;43.15
4570;BME280;2297;51.442;6.996;2022-09-30T11:51:07;99805.84;;;14.84;43.00
4570;BME280;2297;51.442;6.996;2022-09-30T11:53:42;99797.28;;;14.77;42.65
4570;BME280;2297;51.442;6.996;2022-09-30T11:56:23;99804.72;;;14.69;42.98
4570;BME280;2297;51.442;6.996;2022-09-30T11:58:53;99794.53;;;14.97;42.60
4570;BME280;2297;51.442;6.996;2022-09-30T12:01:27;99786.34;;;15.21;42.52
4570;BME280;2297;51.442;6.996;2022-09-30T12:04:00;99784.28;;;15.45;42.04
4570;BME280;2297;51.442;6.996;2022-09-30T12:06:33;99766.28;;;15.51;41.60
4570;BME280;2297;51.442;6.996;2022-09-30T12:09:16;99785.53;;;15.38;41.33
4570;BME280;2297;51.442;6.996;2022-09-30T12:11:49;99769.97;;;15.66;40.48
4570;BME280;2297;51.442;6.996;2022-09-30T12:14:22;99766.06;;;15.73;39.78
4570;BME280;2297;51.442;6.996;2022-09-30T12:16:50;99763.34;;;15.57;40.34
4570;BME280;2297;51.442;6.996;2022-09-30T12:19:21;99760.97;;;15.68;40.78
4570;BME280;2297;51.442;6.996;2022-09-30T12:21:54;99760.97;;;15.68;40.56
4570;BME280;2297;51.442;6.996;2022-09-30T12:24:29;99761.50;;;15.57;40.95
4570;BME280;2297;51.442;6.996;2022-09-30T12:26:57;99770.03;;;15.82;40.55
4570;BME280;2297;51.442;6.996;2022-09-30T12:29:29;99761.00;;;15.86;40.48
4570;BME280;2297;51.442;6.996;2022-09-30T12:35:28;99750.63;;;15.44;40.38
4570;BME280;2297;51.442;6.996;2022-09-30T12:38:12;99749.16;;;15.74;40.04
4570;BME280;2297;51.442;6.996;2022-09-30T12:40:55;99739.84;;;16.00;38.81
4570;BME280;2297;51.442;6.996;2022-09-30T12:44:01;99752.19;;;15.84;38.78
4570;BME280;2297;51.442;6.996;2022-09-30T12:46:54;99739.88;;;15.99;38.92
4570;BME280;2297;51.442;6.996;2022-09-30T12:49:26;99739.03;;;15.98;38.70
4570;BME280;2297;51.442;6.996;2022-09-30T12:51:56;99734.81;;;16.11;38.94
4570;BME280;2297;51.442;6.996;2022-09-30T12:54:27;99739.28;;;16.11;39.20
4570;BME280;2297;51.442;6.996;2022-09-30T12:56:59;99739.47;;;16.24;38.95
4570;BME280;2297;51.442;6.996;2022-09-30T12:59:30;99721.84;;;16.55;38.71
4570;BME280;2297;51.442;6.996;2022-09-30T13:01:59;99725.59;;;16.51;38.52
4570;BME280;2297;51.442;6.996;2022-09-30T13:04:31;99722.97;;;16.67;38.35
4570;BME280;2297;51.442;6.996;2022-09-30T13:07:15;99718.19;;;16.56;38.10
4570;BME280;2297;51.442;6.996;2022-09-30T13:13:20;99720.06;;;16.22;38.51
4570;BME280;2297;51.442;6.996;2022-09-30T13:15:49;99710.69;;;16.30;38.74
4570;BME280;2297;51.442;6.996;2022-09-30T13:21:23;99714.50;;;16.58;38.60
4570;BME280;2297;51.442;6.996;2022-09-30T13:23:51;99720.63;;;16.60;38.71
4570;BME280;2297;51.442;6.996;2022-09-30T13:26:32;99715.34;;;16.27;38.81
4570;BME280;2297;51.442;6.996;2022-09-30T13:29:31;99719.69;;;16.45;38.92
4570;BME280;2297;51.442;6.996;2022-09-30T13:32:04;99703.16;;;16.39;38.61
4570;BME280;2297;51.442;6.996;2022-09-30T13:34:32;99703.59;;;16.63;38.03
4570;BME280;2297;51.442;6.996;2022-09-30T13:37:01;99699.22;;;16.62;38.26
4570;BME280;2297;51.442;6.996;2022-09-30T13:39:30;99707.72;;;16.53;38.70
4570;BME280;2297;51.442;6.996;2022-09-30T13:42:19;99701.75;;;16.32;38.22
4570;BME280;2297;51.442;6.996;2022-09-30T13:44:58;99705.72;;;16.24;38.01
4570;BME280;2297;51.442;6.996;2022-09-30T13:47:29;99701.03;;;16.77;37.37
4570;BME280;2297;51.442;6.996;2022-09-30T13:50:02;99692.63;;;17.01;37.38
4570;BME280;2297;51.442;6.996;2022-09-30T13:52:33;99703.28;;;17.01;37.06
4570;BME280;2297;51.442;6.996;2022-09-30T13:55:05;99705.00;;;16.86;37.30
4570;BME280;2297;51.442;6.996;2022-09-30T13:57:41;99702.06;;;16.75;37.25
4570;BME280;2297;51.442;6.996;2022-09-30T14:00:15;99693.03;;;16.77;37.54
4570;BME280;2297;51.442;6.996;2022-09-30T14:03:05;99694.41;;;16.69;37.33
4570;BME280;2297;51.442;6.996;2022-09-30T14:06:03;99686.91;;;16.59;37.68
4570;BME280;2297;51.442;6.996;2022-09-30T14:09:06;99682.97;;;16.83;36.42
4570;BME280;2297;51.442;6.996;2022-09-30T14:11:51;99676.22;;;17.07;36.23
4570;BME280;2297;51.442;6.996;2022-09-30T14:14:36;99675.25;;;17.55;35.91
4570;BME280;2297;51.442;6.996;2022-09-30T14:17:26;99685.13;;;17.38;35.79